Terminal Aerodrome Forecast
Issued by NWS Buffalo, NY

Home | Current Version | Previous Version | Text Only | Print | Product List | Glossary On
Versions: 1 2 3 4 5 6 7 8 9 10 11 12 13 14 15 16 17 18 19 20 21 22 23 24 25
020
FTUS41 KBUF 260859 AAA
TAFROC
TAF AMD
KROC 260859Z 2609/2706 08007KT P6SM VCSH OVC035
     FM261200 10008KT 5SM BR VCSH OVC012
     FM261500 13008KT P6SM BKN060
     FM262100 14011KT P6SM BKN100
     FM262300 15012KT P6SM VCSH BKN090
     FM270300 16015KT 5SM -RA OVC045=

USA.gov is the U.S. government's official web portal to all federal, state and local government web resources and services.